sensor_id;sensor_type;location;lat;lon;timestamp;P1;durP1;ratioP1;P2;durP2;ratioP2
2396;SDS011;1209;48.410;9.054;2023-06-14T00:01:38;4.67;;;3.53;;
2396;SDS011;1209;48.410;9.054;2023-06-14T00:04:03;3.80;;;3.50;;
2396;SDS011;1209;48.410;9.054;2023-06-14T00:06:31;6.80;;;3.50;;
2396;SDS011;1209;48.410;9.054;2023-06-14T00:08:56;7.13;;;3.90;;
2396;SDS011;1209;48.410;9.054;2023-06-14T00:11:21;3.23;;;3.03;;
2396;SDS011;1209;48.410;9.054;2023-06-14T00:13:47;3.60;;;3.30;;
2396;SDS011;1209;48.410;9.054;2023-06-14T00:16:12;5.30;;;3.87;;
2396;SDS011;1209;48.410;9.054;2023-06-14T00:18:37;4.07;;;3.07;;
2396;SDS011;1209;48.410;9.054;2023-06-14T00:21:04;3.30;;;3.00;;
2396;SDS011;1209;48.410;9.054;2023-06-14T00:23:29;3.30;;;3.00;;
2396;SDS011;1209;48.410;9.054;2023-06-14T00:25:55;4.33;;;3.20;;
2396;SDS011;1209;48.410;9.054;2023-06-14T00:28:20;3.40;;;3.10;;
2396;SDS011;1209;48.410;9.054;2023-06-14T00:30:45;5.70;;;3.67;;
2396;SDS011;1209;48.410;9.054;2023-06-14T00:33:11;6.43;;;4.03;;
2396;SDS011;1209;48.410;9.054;2023-06-14T00:35:37;4.13;;;2.97;;
2396;SDS011;1209;48.410;9.054;2023-06-14T00:38:02;5.07;;;3.53;;
2396;SDS011;1209;48.410;9.054;2023-06-14T00:40:28;6.47;;;3.47;;
2396;SDS011;1209;48.410;9.054;2023-06-14T00:42:53;4.63;;;3.20;;
2396;SDS011;1209;48.410;9.054;2023-06-14T00:45:18;3.87;;;3.57;;
2396;SDS011;1209;48.410;9.054;2023-06-14T00:47:44;4.07;;;3.67;;
2396;SDS011;1209;48.410;9.054;2023-06-14T00:50:11;4.43;;;4.03;;
2396;SDS011;1209;48.410;9.054;2023-06-14T00:52:37;3.50;;;3.20;;
2396;SDS011;1209;48.410;9.054;2023-06-14T00:55:04;6.30;;;3.57;;
2396;SDS011;1209;48.410;9.054;2023-06-14T00:57:29;4.10;;;3.80;;
2396;SDS011;1209;48.410;9.054;2023-06-14T00:59:55;4.63;;;3.80;;
2396;SDS011;1209;48.410;9.054;2023-06-14T01:02:20;3.83;;;3.43;;
2396;SDS011;1209;48.410;9.054;2023-06-14T01:04:46;4.13;;;3.70;;
2396;SDS011;1209;48.410;9.054;2023-06-14T01:07:32;6.37;;;3.90;;
2396;SDS011;1209;48.410;9.054;2023-06-14T01:13:12;4.30;;;3.53;;
2396;SDS011;1209;48.410;9.054;2023-06-14T01:15:41;4.77;;;3.77;;
2396;SDS011;1209;48.410;9.054;2023-06-14T01:18:08;8.90;;;4.30;;
2396;SDS011;1209;48.410;9.054;2023-06-14T01:20:42;4.30;;;3.83;;
2396;SDS011;1209;48.410;9.054;2023-06-14T01:23:09;6.70;;;4.60;;
2396;SDS011;1209;48.410;9.054;2023-06-14T01:25:37;4.40;;;3.90;;
2396;SDS011;1209;48.410;9.054;2023-06-14T01:28:04;8.83;;;4.40;;
2396;SDS011;1209;48.410;9.054;2023-06-14T01:30:35;5.80;;;4.10;;
2396;SDS011;1209;48.410;9.054;2023-06-14T01:33:02;4.67;;;3.60;;
2396;SDS011;1209;48.410;9.054;2023-06-14T01:35:30;6.63;;;4.07;;
2396;SDS011;1209;48.410;9.054;2023-06-14T01:37:56;4.20;;;3.70;;
2396;SDS011;1209;48.410;9.054;2023-06-14T01:40:22;6.97;;;4.30;;
2396;SDS011;1209;48.410;9.054;2023-06-14T01:42:49;5.47;;;4.53;;
2396;SDS011;1209;48.410;9.054;2023-06-14T01:45:15;4.03;;;3.63;;
2396;SDS011;1209;48.410;9.054;2023-06-14T01:47:42;5.80;;;4.17;;
2396;SDS011;1209;48.410;9.054;2023-06-14T01:50:09;6.10;;;4.60;;
2396;SDS011;1209;48.410;9.054;2023-06-14T01:52:34;6.00;;;4.23;;
2396;SDS011;1209;48.410;9.054;2023-06-14T01:55:01;6.53;;;4.80;;
2396;SDS011;1209;48.410;9.054;2023-06-14T01:57:27;5.43;;;4.13;;
2396;SDS011;1209;48.410;9.054;2023-06-14T01:59:52;4.90;;;4.10;;
2396;SDS011;1209;48.410;9.054;2023-06-14T02:02:17;4.80;;;3.73;;
2396;SDS011;1209;48.410;9.054;2023-06-14T02:04:43;4.60;;;3.83;;
2396;SDS011;1209;48.410;9.054;2023-06-14T02:07:08;7.53;;;4.60;;
2396;SDS011;1209;48.410;9.054;2023-06-14T02:09:34;4.63;;;3.93;;
2396;SDS011;1209;48.410;9.054;2023-06-14T02:12:00;6.40;;;3.80;;
2396;SDS011;1209;48.410;9.054;2023-06-14T02:14:25;4.63;;;3.93;;
2396;SDS011;1209;48.410;9.054;2023-06-14T02:16:51;6.10;;;4.30;;
2396;SDS011;1209;48.410;9.054;2023-06-14T02:19:18;5.37;;;4.03;;
2396;SDS011;1209;48.410;9.054;2023-06-14T02:21:44;5.50;;;4.00;;
2396;SDS011;1209;48.410;9.054;2023-06-14T02:24:10;4.77;;;3.60;;
2396;SDS011;1209;48.410;9.054;2023-06-14T02:26:36;7.13;;;4.40;;
2396;SDS011;1209;48.410;9.054;2023-06-14T02:29:06;6.30;;;4.23;;
2396;SDS011;1209;48.410;9.054;2023-06-14T02:31:34;4.87;;;4.00;;
2396;SDS011;1209;48.410;9.054;2023-06-14T02:34:00;4.57;;;3.70;;
2396;SDS011;1209;48.410;9.054;2023-06-14T02:36:25;6.70;;;4.80;;
2396;SDS011;1209;48.410;9.054;2023-06-14T02:38:51;6.63;;;3.80;;
2396;SDS011;1209;48.410;9.054;2023-06-14T02:41:17;4.07;;;3.40;;
2396;SDS011;1209;48.410;9.054;2023-06-14T02:43:42;7.60;;;4.20;;
2396;SDS011;1209;48.410;9.054;2023-06-14T02:46:08;6.53;;;3.53;;
2396;SDS011;1209;48.410;9.054;2023-06-14T02:48:33;4.33;;;3.93;;
2396;SDS011;1209;48.410;9.054;2023-06-14T02:50:58;4.30;;;3.67;;
2396;SDS011;1209;48.410;9.054;2023-06-14T02:53:23;9.23;;;3.47;;
2396;SDS011;1209;48.410;9.054;2023-06-14T02:55:49;5.60;;;3.50;;
2396;SDS011;1209;48.410;9.054;2023-06-14T02:58:14;4.60;;;3.60;;
2396;SDS011;1209;48.410;9.054;2023-06-14T03:00:40;4.53;;;3.20;;
2396;SDS011;1209;48.410;9.054;2023-06-14T03:03:07;3.67;;;3.10;;
2396;SDS011;1209;48.410;9.054;2023-06-14T03:05:41;4.50;;;3.67;;
2396;SDS011;1209;48.410;9.054;2023-06-14T03:08:12;4.90;;;3.90;;
2396;SDS011;1209;48.410;9.054;2023-06-14T03:10:44;3.73;;;3.40;;
2396;SDS011;1209;48.410;9.054;2023-06-14T03:13:12;4.70;;;3.40;;
2396;SDS011;1209;48.410;9.054;2023-06-14T03:15:39;4.00;;;3.53;;
2396;SDS011;1209;48.410;9.054;2023-06-14T03:18:06;4.00;;;3.67;;
2396;SDS011;1209;48.410;9.054;2023-06-14T03:20:33;4.10;;;3.60;;
2396;SDS011;1209;48.410;9.054;2023-06-14T03:23:01;4.03;;;3.47;;
2396;SDS011;1209;48.410;9.054;2023-06-14T03:25:28;3.87;;;3.07;;
2396;SDS011;1209;48.410;9.054;2023-06-14T03:27:54;3.93;;;3.40;;
2396;SDS011;1209;48.410;9.054;2023-06-14T03:30:20;5.13;;;4.27;;
2396;SDS011;1209;48.410;9.054;2023-06-14T03:32:46;4.00;;;3.60;;
2396;SDS011;1209;48.410;9.054;2023-06-14T03:35:11;4.27;;;3.67;;
2396;SDS011;1209;48.410;9.054;2023-06-14T03:37:43;4.27;;;3.17;;
2396;SDS011;1209;48.410;9.054;2023-06-14T03:40:09;4.80;;;3.90;;
2396;SDS011;1209;48.410;9.054;2023-06-14T03:42:35;3.83;;;3.47;;
2396;SDS011;1209;48.410;9.054;2023-06-14T03:45:00;5.23;;;3.33;;
2396;SDS011;1209;48.410;9.054;2023-06-14T03:47:25;4.60;;;3.47;;
2396;SDS011;1209;48.410;9.054;2023-06-14T03:49:52;3.97;;;3.03;;
2396;SDS011;1209;48.410;9.054;2023-06-14T03:52:17;4.90;;;3.63;;
2396;SDS011;1209;48.410;9.054;2023-06-14T03:54:43;3.80;;;3.40;;
2396;SDS011;1209;48.410;9.054;2023-06-14T03:57:09;5.40;;;4.40;;
2396;SDS011;1209;48.410;9.054;2023-06-14T03:59:35;4.97;;;3.57;;
2396;SDS011;1209;48.410;9.054;2023-06-14T04:02:01;3.17;;;2.93;;
2396;SDS011;1209;48.410;9.054;2023-06-14T04:04:27;4.00;;;3.30;;
2396;SDS011;1209;48.410;9.054;2023-06-14T04:06:55;3.90;;;3.60;;
2396;SDS011;1209;48.410;9.054;2023-06-14T04:09:22;6.70;;;4.27;;
2396;SDS011;1209;48.410;9.054;2023-06-14T04:11:50;3.70;;;3.30;;
2396;SDS011;1209;48.410;9.054;2023-06-14T04:14:16;4.77;;;4.27;;
2396;SDS011;1209;48.410;9.054;2023-06-14T04:16:43;3.57;;;3.13;;
2396;SDS011;1209;48.410;9.054;2023-06-14T04:19:08;4.60;;;3.57;;
2396;SDS011;1209;48.410;9.054;2023-06-14T04:21:33;3.60;;;3.30;;
2396;SDS011;1209;48.410;9.054;2023-06-14T04:23:59;3.20;;;2.80;;
2396;SDS011;1209;48.410;9.054;2023-06-14T04:26:26;3.93;;;3.53;;
2396;SDS011;1209;48.410;9.054;2023-06-14T04:28:55;3.73;;;2.80;;
2396;SDS011;1209;48.410;9.054;2023-06-14T04:31:22;4.30;;;3.73;;
2396;SDS011;1209;48.410;9.054;2023-06-14T04:33:50;4.00;;;3.40;;
2396;SDS011;1209;48.410;9.054;2023-06-14T04:36:18;3.43;;;3.03;;
2396;SDS011;1209;48.410;9.054;2023-06-14T04:38:43;3.87;;;3.50;;
2396;SDS011;1209;48.410;9.054;2023-06-14T04:41:10;3.50;;;3.20;;
2396;SDS011;1209;48.410;9.054;2023-06-14T04:43:36;7.73;;;4.20;;
2396;SDS011;1209;48.410;9.054;2023-06-14T04:46:06;4.03;;;3.63;;
2396;SDS011;1209;48.410;9.054;2023-06-14T04:48:36;9.00;;;4.10;;
2396;SDS011;1209;48.410;9.054;2023-06-14T04:51:02;4.97;;;3.60;;
2396;SDS011;1209;48.410;9.054;2023-06-14T04:53:28;4.77;;;3.73;;
2396;SDS011;1209;48.410;9.054;2023-06-14T04:55:54;5.30;;;4.00;;
2396;SDS011;1209;48.410;9.054;2023-06-14T04:58:19;3.77;;;3.20;;
2396;SDS011;1209;48.410;9.054;2023-06-14T05:00:45;4.87;;;3.47;;
2396;SDS011;1209;48.410;9.054;2023-06-14T05:03:10;3.37;;;3.07;;
2396;SDS011;1209;48.410;9.054;2023-06-14T05:05:38;5.33;;;4.10;;
2396;SDS011;1209;48.410;9.054;2023-06-14T05:08:07;4.90;;;3.80;;
2396;SDS011;1209;48.410;9.054;2023-06-14T05:10:32;5.23;;;3.80;;
2396;SDS011;1209;48.410;9.054;2023-06-14T05:13:00;4.90;;;3.23;;
2396;SDS011;1209;48.410;9.054;2023-06-14T05:15:26;5.30;;;3.60;;
2396;SDS011;1209;48.410;9.054;2023-06-14T05:17:52;6.07;;;3.47;;
2396;SDS011;1209;48.410;9.054;2023-06-14T05:20:20;6.63;;;4.00;;
2396;SDS011;1209;48.410;9.054;2023-06-14T05:22:48;4.57;;;3.70;;
2396;SDS011;1209;48.410;9.054;2023-06-14T05:25:15;4.17;;;3.50;;
2396;SDS011;1209;48.410;9.054;2023-06-14T05:27:40;3.90;;;3.60;;
2396;SDS011;1209;48.410;9.054;2023-06-14T05:30:07;4.27;;;3.43;;
2396;SDS011;1209;48.410;9.054;2023-06-14T05:32:33;8.30;;;3.87;;
2396;SDS011;1209;48.410;9.054;2023-06-14T05:34:59;5.53;;;4.00;;
2396;SDS011;1209;48.410;9.054;2023-06-14T05:37:24;9.00;;;3.90;;
2396;SDS011;1209;48.410;9.054;2023-06-14T05:39:50;3.90;;;3.50;;
2396;SDS011;1209;48.410;9.054;2023-06-14T05:42:15;7.73;;;3.60;;
2396;SDS011;1209;48.410;9.054;2023-06-14T05:44:40;4.07;;;3.40;;
2396;SDS011;1209;48.410;9.054;2023-06-14T05:47:06;7.60;;;4.30;;
2396;SDS011;1209;48.410;9.054;2023-06-14T05:49:31;4.80;;;3.50;;
2396;SDS011;1209;48.410;9.054;2023-06-14T05:51:56;4.07;;;3.67;;
2396;SDS011;1209;48.410;9.054;2023-06-14T05:54:21;6.10;;;4.37;;
2396;SDS011;1209;48.410;9.054;2023-06-14T05:56:47;4.47;;;4.07;;
2396;SDS011;1209;48.410;9.054;2023-06-14T05:59:12;4.07;;;3.67;;
2396;SDS011;1209;48.410;9.054;2023-06-14T06:01:37;4.20;;;3.53;;
2396;SDS011;1209;48.410;9.054;2023-06-14T06:04:05;4.97;;;3.90;;
2396;SDS011;1209;48.410;9.054;2023-06-14T06:06:31;4.87;;;3.90;;
2396;SDS011;1209;48.410;9.054;2023-06-14T06:08:57;4.97;;;4.47;;
2396;SDS011;1209;48.410;9.054;2023-06-14T06:11:22;9.33;;;5.07;;
2396;SDS011;1209;48.410;9.054;2023-06-14T06:13:48;5.83;;;4.90;;
2396;SDS011;1209;48.410;9.054;2023-06-14T06:16:14;6.53;;;5.10;;
2396;SDS011;1209;48.410;9.054;2023-06-14T06:18:40;10.80;;;5.50;;
2396;SDS011;1209;48.410;9.054;2023-06-14T06:21:05;6.20;;;4.17;;
2396;SDS011;1209;48.410;9.054;2023-06-14T06:23:31;12.20;;;5.17;;
2396;SDS011;1209;48.410;9.054;2023-06-14T06:25:56;6.37;;;4.90;;
2396;SDS011;1209;48.410;9.054;2023-06-14T06:28:21;6.30;;;5.17;;
2396;SDS011;1209;48.410;9.054;2023-06-14T06:30:47;6.57;;;5.07;;
2396;SDS011;1209;48.410;9.054;2023-06-14T06:33:12;10.50;;;5.00;;
2396;SDS011;1209;48.410;9.054;2023-06-14T06:35:39;6.10;;;5.50;;
2396;SDS011;1209;48.410;9.054;2023-06-14T06:38:04;5.57;;;4.57;;
2396;SDS011;1209;48.410;9.054;2023-06-14T06:40:29;7.20;;;5.20;;
2396;SDS011;1209;48.410;9.054;2023-06-14T06:42:55;5.87;;;4.40;;
2396;SDS011;1209;48.410;9.054;2023-06-14T06:45:20;5.60;;;4.70;;
2396;SDS011;1209;48.410;9.054;2023-06-14T06:47:45;5.27;;;4.43;;
2396;SDS011;1209;48.410;9.054;2023-06-14T06:50:11;4.70;;;4.10;;
2396;SDS011;1209;48.410;9.054;2023-06-14T06:52:36;5.77;;;4.33;;
2396;SDS011;1209;48.410;9.054;2023-06-14T06:55:01;5.47;;;4.63;;
2396;SDS011;1209;48.410;9.054;2023-06-14T06:57:27;5.50;;;3.97;;
2396;SDS011;1209;48.410;9.054;2023-06-14T06:59:54;6.73;;;4.80;;
2396;SDS011;1209;48.410;9.054;2023-06-14T07:02:19;5.30;;;4.60;;
2396;SDS011;1209;48.410;9.054;2023-06-14T07:04:45;5.37;;;4.57;;
2396;SDS011;1209;48.410;9.054;2023-06-14T07:07:10;4.80;;;4.27;;
2396;SDS011;1209;48.410;9.054;2023-06-14T07:09:36;7.40;;;4.90;;
2396;SDS011;1209;48.410;9.054;2023-06-14T07:12:01;5.50;;;4.77;;
2396;SDS011;1209;48.410;9.054;2023-06-14T07:14:27;13.60;;;5.50;;
2396;SDS011;1209;48.410;9.054;2023-06-14T07:16:52;5.43;;;4.50;;
2396;SDS011;1209;48.410;9.054;2023-06-14T07:19:17;6.53;;;4.83;;
2396;SDS011;1209;48.410;9.054;2023-06-14T07:21:43;6.10;;;5.00;;
2396;SDS011;1209;48.410;9.054;2023-06-14T07:24:08;5.73;;;4.83;;
2396;SDS011;1209;48.410;9.054;2023-06-14T07:26:34;5.27;;;4.43;;
2396;SDS011;1209;48.410;9.054;2023-06-14T07:29:00;4.83;;;3.87;;
2396;SDS011;1209;48.410;9.054;2023-06-14T07:31:26;5.00;;;4.50;;
2396;SDS011;1209;48.410;9.054;2023-06-14T07:33:51;6.30;;;4.37;;
2396;SDS011;1209;48.410;9.054;2023-06-14T07:36:17;5.17;;;4.30;;
2396;SDS011;1209;48.410;9.054;2023-06-14T07:38:42;5.23;;;4.57;;
2396;SDS011;1209;48.410;9.054;2023-06-14T07:41:08;5.33;;;4.00;;
2396;SDS011;1209;48.410;9.054;2023-06-14T07:43:33;9.33;;;5.87;;
2396;SDS011;1209;48.410;9.054;2023-06-14T07:45:59;5.13;;;4.50;;
2396;SDS011;1209;48.410;9.054;2023-06-14T07:48:25;5.50;;;4.17;;
2396;SDS011;1209;48.410;9.054;2023-06-14T07:50:50;5.00;;;4.50;;
2396;SDS011;1209;48.410;9.054;2023-06-14T07:53:15;5.50;;;4.77;;
2396;SDS011;1209;48.410;9.054;2023-06-14T07:55:41;4.83;;;4.30;;
2396;SDS011;1209;48.410;9.054;2023-06-14T07:58:07;9.33;;;5.00;;
2396;SDS011;1209;48.410;9.054;2023-06-14T08:00:32;6.30;;;4.57;;
2396;SDS011;1209;48.410;9.054;2023-06-14T08:02:58;4.63;;;4.20;;
2396;SDS011;1209;48.410;9.054;2023-06-14T08:05:26;4.37;;;3.93;;
2396;SDS011;1209;48.410;9.054;2023-06-14T08:07:53;7.07;;;4.60;;
2396;SDS011;1209;48.410;9.054;2023-06-14T08:10:20;5.53;;;4.37;;
2396;SDS011;1209;48.410;9.054;2023-06-14T08:12:46;5.83;;;4.83;;
2396;SDS011;1209;48.410;9.054;2023-06-14T08:15:11;5.83;;;4.80;;
2396;SDS011;1209;48.410;9.054;2023-06-14T08:17:37;6.30;;;4.53;;
2396;SDS011;1209;48.410;9.054;2023-06-14T08:20:02;7.03;;;4.90;;
2396;SDS011;1209;48.410;9.054;2023-06-14T08:22:31;4.57;;;4.13;;
2396;SDS011;1209;48.410;9.054;2023-06-14T08:24:59;5.10;;;4.53;;
2396;SDS011;1209;48.410;9.054;2023-06-14T08:27:26;4.67;;;4.00;;
2396;SDS011;1209;48.410;9.054;2023-06-14T08:29:51;5.10;;;4.30;;
2396;SDS011;1209;48.410;9.054;2023-06-14T08:32:16;7.60;;;3.80;;
2396;SDS011;1209;48.410;9.054;2023-06-14T08:34:42;5.60;;;5.03;;
2396;SDS011;1209;48.410;9.054;2023-06-14T08:37:07;5.57;;;4.80;;
2396;SDS011;1209;48.410;9.054;2023-06-14T08:39:32;5.93;;;4.90;;
2396;SDS011;1209;48.410;9.054;2023-06-14T08:41:57;6.33;;;4.43;;
2396;SDS011;1209;48.410;9.054;2023-06-14T08:44:23;5.40;;;4.90;;
2396;SDS011;1209;48.410;9.054;2023-06-14T08:46:48;8.07;;;4.93;;
2396;SDS011;1209;48.410;9.054;2023-06-14T08:49:16;7.33;;;5.10;;
2396;SDS011;1209;48.410;9.054;2023-06-14T08:51:42;7.47;;;5.03;;
2396;SDS011;1209;48.410;9.054;2023-06-14T08:54:08;5.10;;;4.30;;
2396;SDS011;1209;48.410;9.054;2023-06-14T08:56:37;9.30;;;4.20;;
2396;SDS011;1209;48.410;9.054;2023-06-14T08:59:03;7.60;;;4.73;;
2396;SDS011;1209;48.410;9.054;2023-06-14T09:01:34;5.83;;;4.47;;
2396;SDS011;1209;48.410;9.054;2023-06-14T09:04:01;7.17;;;4.30;;
2396;SDS011;1209;48.410;9.054;2023-06-14T09:06:27;5.03;;;4.30;;
2396;SDS011;1209;48.410;9.054;2023-06-14T09:08:53;6.47;;;4.30;;
2396;SDS011;1209;48.410;9.054;2023-06-14T09:11:20;7.20;;;4.60;;
2396;SDS011;1209;48.410;9.054;2023-06-14T09:13:46;6.40;;;4.67;;
2396;SDS011;1209;48.410;9.054;2023-06-14T09:16:11;5.30;;;4.10;;
2396;SDS011;1209;48.410;9.054;2023-06-14T09:18:38;4.73;;;4.20;;
2396;SDS011;1209;48.410;9.054;2023-06-14T09:21:06;4.80;;;3.90;;
2396;SDS011;1209;48.410;9.054;2023-06-14T09:23:33;4.20;;;3.87;;
2396;SDS011;1209;48.410;9.054;2023-06-14T09:26:01;4.27;;;3.87;;
2396;SDS011;1209;48.410;9.054;2023-06-14T09:28:31;4.27;;;3.87;;
2396;SDS011;1209;48.410;9.054;2023-06-14T09:30:56;6.47;;;4.40;;
2396;SDS011;1209;48.410;9.054;2023-06-14T09:33:21;9.47;;;4.10;;
2396;SDS011;1209;48.410;9.054;2023-06-14T09:35:50;8.67;;;4.00;;
2396;SDS011;1209;48.410;9.054;2023-06-14T09:38:16;7.03;;;4.00;;
2396;SDS011;1209;48.410;9.054;2023-06-14T09:40:41;4.70;;;3.97;;
2396;SDS011;1209;48.410;9.054;2023-06-14T09:43:07;5.10;;;3.77;;
2396;SDS011;1209;48.410;9.054;2023-06-14T09:45:36;10.70;;;4.30;;
2396;SDS011;1209;48.410;9.054;2023-06-14T09:48:04;4.00;;;3.70;;
2396;SDS011;1209;48.410;9.054;2023-06-14T09:50:31;5.60;;;3.90;;
2396;SDS011;1209;48.410;9.054;2023-06-14T09:52:57;4.13;;;3.70;;
2396;SDS011;1209;48.410;9.054;2023-06-14T09:55:28;4.03;;;3.63;;
2396;SDS011;1209;48.410;9.054;2023-06-14T09:57:56;3.80;;;3.50;;
2396;SDS011;1209;48.410;9.054;2023-06-14T10:00:22;5.53;;;4.63;;
2396;SDS011;1209;48.410;9.054;2023-06-14T10:02:51;5.47;;;4.33;;
2396;SDS011;1209;48.410;9.054;2023-06-14T10:08:46;5.10;;;4.43;;
2396;SDS011;1209;48.410;9.054;2023-06-14T10:11:14;4.90;;;4.10;;
2396;SDS011;1209;48.410;9.054;2023-06-14T10:13:40;5.90;;;4.87;;
2396;SDS011;1209;48.410;9.054;2023-06-14T10:19:00;5.20;;;4.80;;
2396;SDS011;1209;48.410;9.054;2023-06-14T10:24:30;4.77;;;4.27;;
2396;SDS011;1209;48.410;9.054;2023-06-14T10:27:06;6.07;;;3.80;;
2396;SDS011;1209;48.410;9.054;2023-06-14T10:29:46;4.33;;;3.93;;
2396;SDS011;1209;48.410;9.054;2023-06-14T10:32:24;5.30;;;3.70;;
2396;SDS011;1209;48.410;9.054;2023-06-14T10:34:53;4.00;;;3.70;;
2396;SDS011;1209;48.410;9.054;2023-06-14T10:37:23;4.67;;;4.20;;
2396;SDS011;1209;48.410;9.054;2023-06-14T10:39:52;5.23;;;4.60;;
2396;SDS011;1209;48.410;9.054;2023-06-14T10:42:18;4.57;;;4.07;;
2396;SDS011;1209;48.410;9.054;2023-06-14T10:47:27;7.67;;;3.67;;
2396;SDS011;1209;48.410;9.054;2023-06-14T10:49:57;4.50;;;4.00;;
2396;SDS011;1209;48.410;9.054;2023-06-14T10:52:34;8.30;;;4.27;;
2396;SDS011;1209;48.410;9.054;2023-06-14T10:57:36;7.30;;;4.27;;
2396;SDS011;1209;48.410;9.054;2023-06-14T11:00:05;4.90;;;3.87;;
2396;SDS011;1209;48.410;9.054;2023-06-14T11:03:03;5.00;;;3.80;;
2396;SDS011;1209;48.410;9.054;2023-06-14T11:05:53;4.40;;;4.00;;
2396;SDS011;1209;48.410;9.054;2023-06-14T11:11:07;4.07;;;3.70;;
2396;SDS011;1209;48.410;9.054;2023-06-14T11:13:33;5.73;;;4.20;;
2396;SDS011;1209;48.410;9.054;2023-06-14T11:19:23;3.80;;;3.50;;
2396;SDS011;1209;48.410;9.054;2023-06-14T11:21:49;5.37;;;4.10;;
2396;SDS011;1209;48.410;9.054;2023-06-14T11:24:14;6.03;;;4.30;;
2396;SDS011;1209;48.410;9.054;2023-06-14T11:26:40;4.73;;;4.23;;
2396;SDS011;1209;48.410;9.054;2023-06-14T11:29:05;4.90;;;4.50;;
2396;SDS011;1209;48.410;9.054;2023-06-14T11:31:31;5.70;;;4.03;;
2396;SDS011;1209;48.410;9.054;2023-06-14T11:33:57;3.97;;;3.67;;
2396;SDS011;1209;48.410;9.054;2023-06-14T11:39:45;3.73;;;3.43;;
2396;SDS011;1209;48.410;9.054;2023-06-14T11:42:16;4.53;;;3.87;;
2396;SDS011;1209;48.410;9.054;2023-06-14T11:44:42;4.47;;;3.67;;
2396;SDS011;1209;48.410;9.054;2023-06-14T11:47:07;3.93;;;3.60;;
2396;SDS011;1209;48.410;9.054;2023-06-14T11:49:36;4.60;;;3.20;;
2396;SDS011;1209;48.410;9.054;2023-06-14T11:52:01;4.10;;;3.70;;
2396;SDS011;1209;48.410;9.054;2023-06-14T11:54:27;5.27;;;3.57;;
2396;SDS011;1209;48.410;9.054;2023-06-14T11:56:52;4.10;;;3.70;;
2396;SDS011;1209;48.410;9.054;2023-06-14T11:59:18;4.17;;;3.20;;
2396;SDS011;1209;48.410;9.054;2023-06-14T12:01:43;4.10;;;3.80;;
2396;SDS011;1209;48.410;9.054;2023-06-14T12:04:08;4.67;;;3.93;;
2396;SDS011;1209;48.410;9.054;2023-06-14T12:06:34;4.07;;;3.70;;
2396;SDS011;1209;48.410;9.054;2023-06-14T12:09:04;3.70;;;3.40;;
2396;SDS011;1209;48.410;9.054;2023-06-14T12:11:38;5.10;;;3.63;;
2396;SDS011;1209;48.410;9.054;2023-06-14T12:14:04;4.40;;;4.00;;
2396;SDS011;1209;48.410;9.054;2023-06-14T12:16:31;5.18;;;3.60;;
2396;SDS011;1209;48.410;9.054;2023-06-14T12:18:59;3.57;;;3.27;;
2396;SDS011;1209;48.410;9.054;2023-06-14T12:21:27;3.87;;;3.53;;
2396;SDS011;1209;48.410;9.054;2023-06-14T12:23:53;4.30;;;3.50;;
2396;SDS011;1209;48.410;9.054;2023-06-14T12:26:19;3.93;;;3.63;;
2396;SDS011;1209;48.410;9.054;2023-06-14T12:28:46;4.47;;;3.53;;
2396;SDS011;1209;48.410;9.054;2023-06-14T12:31:12;4.70;;;3.60;;
2396;SDS011;1209;48.410;9.054;2023-06-14T12:33:40;4.17;;;3.87;;
2396;SDS011;1209;48.410;9.054;2023-06-14T12:36:09;4.27;;;3.50;;
2396;SDS011;1209;48.410;9.054;2023-06-14T12:38:35;3.97;;;3.60;;
2396;SDS011;1209;48.410;9.054;2023-06-14T12:41:01;6.53;;;4.40;;
2396;SDS011;1209;48.410;9.054;2023-06-14T12:43:27;3.87;;;3.57;;
2396;SDS011;1209;48.410;9.054;2023-06-14T12:45:53;4.63;;;4.23;;
2396;SDS011;1209;48.410;9.054;2023-06-14T12:48:19;4.93;;;3.90;;
2396;SDS011;1209;48.410;9.054;2023-06-14T12:50:44;4.80;;;3.70;;
2396;SDS011;1209;48.410;9.054;2023-06-14T12:53:10;5.50;;;3.80;;
2396;SDS011;1209;48.410;9.054;2023-06-14T12:55:35;4.30;;;3.90;;
2396;SDS011;1209;48.410;9.054;2023-06-14T12:58:01;5.23;;;3.60;;
2396;SDS011;1209;48.410;9.054;2023-06-14T13:00:27;5.57;;;4.47;;
2396;SDS011;1209;48.410;9.054;2023-06-14T13:02:52;5.13;;;4.60;;
2396;SDS011;1209;48.410;9.054;2023-06-14T13:05:18;4.83;;;4.40;;
2396;SDS011;1209;48.410;9.054;2023-06-14T13:07:43;4.60;;;4.20;;
2396;SDS011;1209;48.410;9.054;2023-06-14T13:10:09;4.30;;;3.37;;
2396;SDS011;1209;48.410;9.054;2023-06-14T13:12:35;4.40;;;4.00;;
2396;SDS011;1209;48.410;9.054;2023-06-14T13:15:00;4.10;;;3.60;;
2396;SDS011;1209;48.410;9.054;2023-06-14T13:17:26;4.30;;;3.93;;
2396;SDS011;1209;48.410;9.054;2023-06-14T13:19:51;4.30;;;4.00;;
2396;SDS011;1209;48.410;9.054;2023-06-14T13:22:16;4.73;;;3.47;;
2396;SDS011;1209;48.410;9.054;2023-06-14T13:24:42;4.50;;;4.10;;
2396;SDS011;1209;48.410;9.054;2023-06-14T13:27:07;6.23;;;3.90;;
2396;SDS011;1209;48.410;9.054;2023-06-14T13:29:33;4.50;;;4.10;;
2396;SDS011;1209;48.410;9.054;2023-06-14T13:32:00;4.80;;;4.30;;
2396;SDS011;1209;48.410;9.054;2023-06-14T13:34:26;5.60;;;4.83;;
2396;SDS011;1209;48.410;9.054;2023-06-14T13:36:52;6.73;;;4.83;;
2396;SDS011;1209;48.410;9.054;2023-06-14T13:39:17;4.50;;;4.10;;
2396;SDS011;1209;48.410;9.054;2023-06-14T13:41:42;5.40;;;4.20;;
2396;SDS011;1209;48.410;9.054;2023-06-14T13:44:08;4.73;;;4.33;;
2396;SDS011;1209;48.410;9.054;2023-06-14T13:46:36;5.10;;;4.60;;
2396;SDS011;1209;48.410;9.054;2023-06-14T13:49:01;4.53;;;3.80;;
2396;SDS011;1209;48.410;9.054;2023-06-14T13:51:27;4.13;;;3.73;;
2396;SDS011;1209;48.410;9.054;2023-06-14T13:53:52;5.27;;;4.73;;
2396;SDS011;1209;48.410;9.054;2023-06-14T13:56:18;5.07;;;4.57;;
2396;SDS011;1209;48.410;9.054;2023-06-14T13:58:43;4.80;;;4.30;;
2396;SDS011;1209;48.410;9.054;2023-06-14T14:01:09;4.47;;;4.07;;
2396;SDS011;1209;48.410;9.054;2023-06-14T14:03:35;5.40;;;4.90;;
2396;SDS011;1209;48.410;9.054;2023-06-14T14:06:01;5.20;;;4.67;;
2396;SDS011;1209;48.410;9.054;2023-06-14T14:08:27;4.77;;;4.27;;
2396;SDS011;1209;48.410;9.054;2023-06-14T14:10:52;4.77;;;4.37;;
2396;SDS011;1209;48.410;9.054;2023-06-14T14:13:17;4.90;;;4.40;;
2396;SDS011;1209;48.410;9.054;2023-06-14T14:15:43;4.67;;;4.17;;
2396;SDS011;1209;48.410;9.054;2023-06-14T14:18:08;4.47;;;4.17;;
2396;SDS011;1209;48.410;9.054;2023-06-14T14:20:34;5.77;;;3.90;;
2396;SDS011;1209;48.410;9.054;2023-06-14T14:22:59;4.13;;;3.80;;
2396;SDS011;1209;48.410;9.054;2023-06-14T14:25:25;5.40;;;4.30;;
2396;SDS011;1209;48.410;9.054;2023-06-14T14:27:50;4.80;;;4.40;;
2396;SDS011;1209;48.410;9.054;2023-06-14T14:30:15;4.67;;;3.80;;
2396;SDS011;1209;48.410;9.054;2023-06-14T14:32:42;4.20;;;3.80;;
2396;SDS011;1209;48.410;9.054;2023-06-14T14:35:08;4.93;;;4.53;;
2396;SDS011;1209;48.410;9.054;2023-06-14T14:37:33;7.07;;;4.85;;
2396;SDS011;1209;48.410;9.054;2023-06-14T14:39:59;4.90;;;4.50;;
2396;SDS011;1209;48.410;9.054;2023-06-14T14:42:24;5.80;;;5.30;;
2396;SDS011;1209;48.410;9.054;2023-06-14T14:44:51;6.10;;;4.90;;
2396;SDS011;1209;48.410;9.054;2023-06-14T14:47:16;4.50;;;4.17;;
2396;SDS011;1209;48.410;9.054;2023-06-14T14:49:42;5.03;;;4.53;;
2396;SDS011;1209;48.410;9.054;2023-06-14T14:52:07;4.50;;;4.10;;
2396;SDS011;1209;48.410;9.054;2023-06-14T14:54:33;7.27;;;4.90;;
2396;SDS011;1209;48.410;9.054;2023-06-14T14:56:58;5.23;;;4.00;;
2396;SDS011;1209;48.410;9.054;2023-06-14T14:59:23;8.00;;;3.80;;
2396;SDS011;1209;48.410;9.054;2023-06-14T15:01:48;3.93;;;3.63;;
2396;SDS011;1209;48.410;9.054;2023-06-14T15:04:14;4.43;;;4.03;;
2396;SDS011;1209;48.410;9.054;2023-06-14T15:06:39;5.10;;;4.23;;
2396;SDS011;1209;48.410;9.054;2023-06-14T15:09:05;4.40;;;4.00;;
2396;SDS011;1209;48.410;9.054;2023-06-14T15:11:30;4.00;;;3.60;;
2396;SDS011;1209;48.410;9.054;2023-06-14T15:13:56;4.20;;;3.80;;
2396;SDS011;1209;48.410;9.054;2023-06-14T15:16:21;4.90;;;4.50;;
2396;SDS011;1209;48.410;9.054;2023-06-14T15:18:47;4.23;;;3.93;;
2396;SDS011;1209;48.410;9.054;2023-06-14T15:21:12;4.77;;;4.37;;
2396;SDS011;1209;48.410;9.054;2023-06-14T15:23:38;4.87;;;4.17;;
2396;SDS011;1209;48.410;9.054;2023-06-14T15:26:03;5.23;;;4.73;;
2396;SDS011;1209;48.410;9.054;2023-06-14T15:28:29;4.87;;;4.20;;
2396;SDS011;1209;48.410;9.054;2023-06-14T15:30:55;4.87;;;4.40;;
2396;SDS011;1209;48.410;9.054;2023-06-14T15:33:20;5.40;;;4.90;;
2396;SDS011;1209;48.410;9.054;2023-06-14T15:35:46;4.83;;;4.33;;
2396;SDS011;1209;48.410;9.054;2023-06-14T15:38:11;5.30;;;4.83;;